Weather observations for the past three days for
Chickasha, Chickasha Municipal Airport
Imperial (Metric)
Date Time (cdt) Wind (mph) Vis. (mi.) Weather Sky Cond. Temperature (ºF) Relative Humidity Wind Chill (°F) Heat Index (°F) Pressure Precipitation (in)
Air Dwpt 6 hour altimeter (in) sea level (mb) 1 hr 3 hr 6 hr
Max. Min.
10 14:55 N 18 G 25 10.00 Rain SCT029 SCT047 OVC100 60.8 57.2 88% 30.16 0.0
10 14:35 N 21 10.00 Overcast and Breezy SCT012 OVC110 62.6 59 88% 30.16 0.0
10 14:15 N 17 10.00 Overcast OVC100 62.6 59 88% 30.17 0.0
10 13:55 N 15 G 28 10.00 Mostly Cloudy SCT009 BKN110 62.6 59 88% 30.16 0.0
10 13:35 NE 16 G 23 10.00 Overcast BKN009 BKN047 OVC110 62.6 60.8 94% 30.15 0.0
10 12:55 N 20 10.00 Light Rain SCT009 BKN048 OVC095 60.8 59 94% 30.16 0.0 0.01
10 12:35 N 20 G 24 7.00 Rain SCT048 SCT070 OVC095 60.8 59 94% 30.16 0.0 0.01
10 12:15 N 15 10.00 Light Rain OVC095 62.6 59 88% 30.15 0.0 0.01
10 11:55 N 13 10.00 Overcast OVC095 62.6 59 88% 30.12 0.0
10 11:35 N 15 10.00 Overcast OVC095 62.6 59 88% 30.11 0.0
10 11:15 N 24 10.00 Light Rain and Breezy SCT031 SCT048 OVC085 60.8 59 94% 30.11 0.0
10 10:55 N 16 10.00 Thunderstorm Rain SCT033 SCT060 OVC085 60.8 59 94% 30.11 0.0
10 10:35 N 12 10.00 Rain SCT025 SCT033 OVC075 60.8 59 94% 30.09 0.0
10 10:15 NE 10 10.00 Light Rain OVC075 60.8 59 94% 30.06 0.0
10 09:55 NE 9 10.00 Overcast OVC075 60.8 59 94% 30.05 0.0
10 09:35 NE 8 7.00 Thunderstorm Heavy Rain in Vicinity OVC075 60.8 59 94% 30.05 0.0
10 09:15 NE 8 10.00 Overcast OVC075 60.8 59 94% 30.05 0.0
10 08:55 E 14 10.00 Overcast OVC075 60.8 59 94% 30.05 0.0
10 08:35 NE 15 10.00 Light Rain OVC075 59 59 100% 30.05 0.0
10 07:55 NE 15 10.00 Thunderstorm Light Rain SCT026 SCT035 OVC075 59 57.2 94% 30.05 0.0
10 07:35 NE 14 5.00 Thunderstorm Heavy Rain Fog/Mist SCT029 SCT039 OVC075 60.8 57.2 88% 30.04 0.0
10 07:15 N 16 G 22 10.00 Thunderstorm SCT036 SCT041 OVC075 60.8 57.2 88% 30.03 0.0
10 06:55 N 25 G 37 10.00 Thunderstorm in Vicinity and Breezy SCT036 BKN060 OVC070 60.8 59 94% 30.01 0.0 0.01
10 06:35 N 13 10.00 Partly Cloudy SCT060 59 57.2 94% 29.96 0.0 0.01
10 06:15 Calm 10.00 Partly Cloudy SCT090 59 57.2 94% 29.92 0.0 0.01
10 05:55 NW 3 10.00 Partly Cloudy SCT090 59 57.2 94% 29.9 0.0
10 05:35 Calm 10.00 Fair CLR 59 59 100% 29.9 0.0
10 05:15 E 3 10.00 Partly Cloudy SCT095 SCT120 60.8 60.8 100% 29.9 0.0
10 04:55 SE 3 10.00 Mostly Cloudy BKN070 BKN085 BKN120 60.8 60.8 100% 29.89 0.0
10 04:35 E 8 10.00 Mostly Cloudy BKN070 BKN090 BKN120 60.8 60.8 100% 29.89 0.0
10 04:15 E 8 10.00 Thunderstorm in Vicinity SCT070 BKN120 62.6 60.8 94% 29.89 0.0
10 03:55 E 8 10.00 Overcast OVC070 62.6 60.8 94% 29.9 0.0
10 03:35 NE 7 10.00 Overcast OVC070 62.6 62.6 100% 29.9 0.0
10 03:15 E 8 10.00 Mostly Cloudy BKN080 62.6 62.6 100% 29.9 0.0
10 02:55 SE 8 10.00 Mostly Cloudy BKN080 62.6 62.6 100% 29.9 0.0
10 02:35 E 10 10.00 Partly Cloudy SCT080 62.6 60.8 94% 29.92 0.0
10 02:15 E 12 10.00 Partly Cloudy SCT090 62.6 62.6 100% 29.92 0.0
10 01:55 NE 9 10.00 Thunderstorm Light Rain in Vicinity BKN090 62.6 62.6 100% 29.92 0.0
10 01:35 N 9 10.00 Thunderstorm in Vicinity OVC090 64.4 62.6 94% 29.95 0.0
10 01:15 NE 8 10.00 Thunderstorm Light Rain in Vicinity SCT035 SCT060 OVC100 64.4 62.6 94% 29.94 0.0
10 00:55 NE 15 5.00 Thunderstorm Heavy Rain Fog/Mist SCT024 SCT046 OVC100 64.4 62.6 94% 29.95 0.0
10 00:35 NE 3 10.00 Mostly Cloudy BKN100 BKN120 64.4 62.6 94% 29.95 0.0
10 00:15 SE 13 10.00 Light Rain SCT120 62.6 60.8 94% 29.92 0.0
09 23:55 S 9 5.00 Thunderstorm Rain in Vicinity Fog/Mist SCT027 BKN070 OVC120 62.6 60.8 94% 29.95 0.0 0.01
09 23:35 SW 10 4.00 Thunderstorm Heavy Rain in Vicinity Fog/Mist SCT008 BKN042 OVC050 64.4 62.6 94% 30 0.0
09 23:15 W 23 G 29 7.00 Thunderstorm Heavy Rain in Vicinity and Breezy SCT039 BKN060 OVC110 68 62.6 83% 29.96 0.0
09 22:55 S 5 G 46 10.00 Thunderstorm Rain in Vicinity SCT060 SCT070 BKN110 69.8 62.6 78% 29.85 0.0
09 22:15 S 9 10.00 Fair CLR 69.8 60.8 73% 29.82 0.0
09 21:55 SE 18 G 32 10.00 Partly Cloudy SCT110 68 64.4 88% 29.75 0.0
09 21:35 SE 22 G 29 10.00 Light Rain and Breezy SCT048 SCT070 OVC110 68 64.4 88% 29.79 0.0
09 21:15 Calm 10.00 Thunderstorm Rain in Vicinity SCT026 SCT046 OVC110 69.8 62.6 78% 29.89 0.0
09 20:55 S 12 10.00 Rain BKN120 71.6 60.8 69% 29.86 0.0
09 20:35 E 18 10.00 Light Rain BKN120 73.4 60.8 65% 29.77 0.0
09 20:15 E 3 7.00 Thunderstorm Heavy Rain SCT033 SCT049 BKN120 73.4 57.2 57% 29.8 0.0
09 19:55 NE 5 7.00 Thunderstorm Haze in Vicinity BKN110 77 59 54% 79 29.78 0.0 0.01
09 19:35 E 5 10.00 Partly Cloudy SCT120 80.6 57.2 45% 81 29.78 0.0 0.01
09 19:15 SE 7 10.00 Fair CLR 80.6 57.2 45% 81 29.77 0.0
09 18:55 SE 12 10.00 Fair CLR 82.4 57.2 42% 82 29.76 0.0
09 18:35 SE 12 10.00 Fair CLR 82.4 55.4 40% 82 29.76 0.0
09 18:15 SE 12 10.00 Fair CLR 86 57.2 38% 85 29.77 0.0
09 17:55 SE 13 10.00 Fair CLR 87.8 57.2 35% 87 29.78 0.0
09 17:35 SE 8 10.00 Fair CLR 87.8 55.4 33% 86 29.79 0.0
09 17:15 SE 10 10.00 Fair CLR 87.8 55.4 33% 86 29.79 0.0
09 16:55 SE 9 10.00 Fair CLR 87.8 57.2 35% 87 29.79 0.0 0.01
09 16:35 SE 9 10.00 Fair CLR 87.8 57.2 35% 87 29.8 0.0 0.01
09 16:15 SE 7 10.00 Fair CLR 87.8 57.2 35% 87 29.8 0.0
09 15:55 S 10 10.00 Fair CLR 87.8 55.4 33% 86 29.81 0.0
09 15:35 E 6 10.00 Fair CLR 87.8 57.2 35% 87 29.83 0.0
09 15:15 E 5 10.00 Fair CLR 87.8 57.2 35% 87 29.83 0.0
09 14:55 SE 6 10.00 Fair CLR 87.8 59 38% 87 29.84 0.0 0.01
09 14:35 E 3 10.00 Fair CLR 87.8 57.2 35% 87 29.85 0.0 0.01
09 14:15 SE 8 10.00 Fair CLR 87.8 57.2 35% 87 29.85 0.0 0.01
09 13:55 SE 5 10.00 Fair CLR 86 55.4 35% 85 29.85 0.0
09 13:35 S 5 10.00 Fair CLR 86 57.2 38% 85 29.86 0.0
09 13:15 S 8 10.00 Fair CLR 84.2 57.2 40% 83 29.87 0.0
09 12:55 SE 8 10.00 Fair CLR 84.2 57.2 40% 83 29.88 0.0
09 12:35 SE 7 10.00 Fair CLR 82.4 59 45% 82 29.89 0.0
09 12:15 Calm 10.00 Fair CLR 80.6 62.6 54% 82 29.9 0.0
09 11:55 S 7 7.00 Fair CLR 80.6 66.2 62% 83 29.9 0.0 0.01
09 11:35 S 9 10.00 Fair CLR 78.8 69.8 74% 81 29.91 0.0
09 11:15 S 7 10.00 Fair CLR 77 71.6 83% 78 29.91 0.0
09 10:55 S 5 10.00 Fair CLR 75.2 73.4 94% 74 29.91 0.0
09 10:35 S 8 10.00 Fair CLR 73.4 71.6 94% 29.92 0.0
09 10:15 S 8 10.00 Fair CLR 73.4 71.6 94% 29.92 0.0
09 09:55 S 7 7.00 Fair CLR 69.8 69.8 100% 29.92 0.0 0.01
09 09:35 SW 7 7.00 Fog/Mist CLR 66.2 66.2 100% 29.92 0.0
09 09:15 S 3 5.00 Fog/Mist CLR 66.2 64.4 94% 29.91 0.0
09 08:55 SE 3 7.00 Fog/Mist CLR 64.4 62.6 94% 29.9 0.0
09 08:35 Calm 7.00 Fog/Mist CLR 62.6 62.6 100% 29.89 0.0
09 08:15 NE 6 7.00 Fog/Mist CLR 60.8 60.8 100% 29.88 0.0
09 07:55 N 5 5.00 Fog/Mist CLR 59 59 100% 29.88 0.0
09 07:35 NW 3 3.00 Fog/Mist CLR 55.4 55.4 100% 29.88 0.0
09 07:15 Calm 5.00 Fog/Mist CLR 55.4 55.4 100% 29.87 0.0
09 06:55 Calm 0.25 Fog BKN002 53.6 53.6 100% 29.87 0.0
09 06:35 NW 3 0.50 Fog OVC002 53.6 51.8 94% 29.87 0.0
09 06:15 NW 3 0.25 Fog OVC002 55.4 53.6 94% 29.86 0.0
09 05:55 Calm 0.25 Fog OVC002 55.4 55.4 100% 29.85 0.0
09 05:35 Calm 0.25 Fog BKN002 55.4 55.4 100% 29.85 0.0
09 05:15 Calm 5.00 Fog/Mist SCT002 55.4 55.4 100% 29.85 0.0
09 04:55 Calm 0.50 Fog BKN002 55.4 55.4 100% 29.86 0.0
09 04:35 NW 3 0.25 Fog BKN002 57.2 57.2 100% 29.87 0.0
09 04:15 Calm 0.25 Fog BKN002 57.2 57.2 100% 29.87 0.0
09 03:55 NW 5 0.50 Fog VV005 59 57.2 94% 29.87 0.0
09 03:35 W 3 0.50 Fog VV005 59 57.2 94% 29.87 0.0
09 02:55 Calm 5.00 Fog/Mist CLR 59 59 100% 29.87 0.0 0.01
09 02:35 Calm 7.00 Fair CLR 60.8 59 94% 29.88 0.0 0.01
09 02:15 NE 6 7.00 Fair CLR 60.8 60.8 100% 29.88 0.0
09 01:55 N 5 10.00 Partly Cloudy SCT018 62.6 60.8 94% 29.88 0.0
09 01:35 NE 7 10.00 Partly Cloudy SCT018 62.6 60.8 94% 29.89 0.0
09 01:15 NE 5 10.00 Fair CLR 62.6 60.8 94% 29.89 0.0
09 00:55 N 8 7.00 Fair CLR 60.8 59 94% 29.89 0.0
09 00:35 N 6 7.00 Fair CLR 60.8 60.8 100% 29.89 0.0
09 00:15 N 3 7.00 Fair CLR 60.8 60.8 100% 29.87 0.0
08 23:55 Calm 10.00 Fair CLR 62.6 60.8 94% 29.85 0.0
08 23:35 NE 6 10.00 Fair CLR 62.6 60.8 94% 29.84 0.0
08 23:15 E 3 10.00 Fair CLR 64.4 62.6 94% 29.85 0.0
08 22:55 E 5 10.00 Fair CLR 64.4 62.6 94% 29.85 0.0 0.01
08 22:35 SE 7 10.00 Fair CLR 64.4 62.6 94% 29.85 0.0 0.01
08 22:15 SE 7 10.00 Fair CLR 64.4 62.6 94% 29.85 0.0
08 21:55 SE 6 10.00 Fair CLR 66.2 62.6 88% 29.84 0.0
08 21:35 S 3 10.00 Fair CLR 66.2 64.4 94% 29.83 0.0
08 21:15 Calm 10.00 Fair CLR 66.2 64.4 94% 29.82 0.0
08 20:55 E 3 10.00 Partly Cloudy SCT110 68 64.4 88% 29.81 0.0
08 20:35 S 18 G 22 10.00 Mostly Cloudy BKN120 68 64.4 88% 29.8 0.0
08 20:15 S 7 10.00 Mostly Cloudy SCT014 BKN100 BKN120 66.2 64.4 94% 29.79 0.0
08 19:35 E 8 G 21 10.00 Thunderstorm Light Rain in Vicinity OVC090 68 64.4 88% 29.77 0.0 0.01
08 19:15 E 15 10.00 Thunderstorm Rain SCT024 BKN050 OVC110 66.2 64.4 94% 29.76 0.0 0.01
08 18:55 W 13 G 31 2.00 Thunderstorm Heavy Rain in Vicinity BKN022 BKN044 OVC050 68 62.6 83% 29.77 0.0
08 18:35 E 10 10.00 Rain SCT049 SCT055 SCT110 82.4 59 45% 82 29.7 0.0
08 18:15 S 14 10.00 Thunderstorm CLR 82.4 59 45% 82 29.72 0.0
08 17:55 S 12 10.00 Thunderstorm in Vicinity CLR 84.2 59 43% 84 29.71 0.0
08 17:15 S 12 10.00 Fair CLR 87.8 59 38% 87 29.73 0.0
08 16:55 S 10 G 16 10.00 Fair CLR 89.6 57.2 33% 88 29.74 0.0
08 16:35 SW 12 G 18 10.00 Fair CLR 89.6 57.2 33% 88 29.76 0.0
08 16:15 S 10 10.00 Fair CLR 89.6 57.2 33% 88 29.77 0.0
08 15:55 S 7 G 16 10.00 Partly Cloudy SCT060 87.8 57.2 35% 87 29.78 0.0
08 15:35 S 13 G 21 10.00 Fair CLR 87.8 57.2 35% 87 29.79 0.0
08 15:15 S 9 G 21 10.00 Fair CLR 87.8 57.2 35% 87 29.79 0.0
08 14:55 S 9 10.00 Fair CLR 87.8 57.2 35% 87 29.8 0.0
08 14:35 S 13 10.00 Fair CLR 86 57.2 38% 85 29.8 0.0
08 14:15 S 14 G 17 10.00 Fair CLR 84.2 57.2 40% 83 29.81 0.0
08 13:55 S 14 G 20 10.00 Fair CLR 82.4 57.2 42% 82 29.82 0.0
08 13:35 SW 13 10.00 Fair CLR 82.4 57.2 42% 82 29.83 0.0
08 13:15 S 16 10.00 Fair CLR 82.4 57.2 42% 82 29.84 0.0
08 12:55 S 12 G 21 10.00 Fair CLR 80.6 55.4 42% 81 29.85 0.0
08 12:35 SW 16 10.00 Fair CLR 80.6 55.4 42% 81 29.87 0.0
08 12:15 S 13 10.00 Fair CLR 78.8 53.6 42% 79 29.87 0.0
08 11:55 S 13 10.00 Partly Cloudy SCT033 77 51.8 42% 78 29.89 0.0
08 11:35 S 16 G 20 10.00 Overcast OVC033 75.2 51.8 44% 78 29.9 0.0
08 11:15 S 15 10.00 Overcast BKN033 OVC039 73.4 50 44% 29.91 0.0
08 10:55 S 16 G 23 10.00 Overcast BKN034 OVC044 73.4 50 44% 29.92 0.0
08 10:35 S 15 10.00 Overcast OVC035 71.6 50 47% 29.93 0.0
08 10:15 S 15 10.00 Overcast OVC037 69.8 50 50% 29.93 0.0
08 09:55 S 18 10.00 Mostly Cloudy BKN037 69.8 51.8 53% 29.94 0.0
08 09:35 S 15 G 22 10.00 Partly Cloudy SCT035 68 53.6 60% 29.95 0.0
08 09:15 S 15 10.00 Fair CLR 64.4 55.4 73% 29.95 0.0
08 08:55 S 10 10.00 Fair CLR 62.6 55.4 77% 29.96 0.0
08 08:15 S 7 10.00 Fair CLR 59 53.6 82% 29.96 0.0
08 07:35 SE 5 10.00 Fair CLR 53.6 48.2 82% 29.96 0.0
08 07:15 S 6 10.00 Fair CLR 51.8 48.2 88% 29.96 0.0
08 06:55 S 6 10.00 Fair CLR 51.8 46.4 82% 29.95 0.0
08 06:35 S 5 10.00 Fair CLR 50 44.6 82% 49 29.94 0.0
08 06:15 S 7 10.00 Fair CLR 51.8 44.6 77% 29.94 0.0
08 05:55 S 6 10.00 Fair CLR 53.6 48.2 82% 29.94 0.0
08 05:35 S 5 10.00 Fair CLR 51.8 46.4 82% 29.94 0.0
08 05:15 S 6 10.00 Fair CLR 51.8 46.4 82% 29.94 0.0
08 04:55 S 5 10.00 Fair CLR 53.6 44.6 72% 29.94 0.0
08 04:35 SW 3 10.00 Fair CLR 53.6 46.4 77% 29.94 0.0
08 04:15 SW 3 10.00 Fair CLR 55.4 48.2 77% 29.93 0.0
08 03:55 S 6 10.00 Fair CLR 55.4 48.2 77% 29.94 0.0
08 03:35 S 6 10.00 Fair CLR 53.6 46.4 77% 29.93 0.0
08 03:15 S 7 10.00 Fair CLR 53.6 46.4 77% 29.94 0.0
08 02:35 SE 6 10.00 Fair CLR 55.4 46.4 72% 29.95 0.0
08 02:15 S 6 10.00 Fair CLR 55.4 46.4 72% 29.96 0.0
08 01:55 S 7 10.00 Fair CLR 57.2 46.4 67% 29.96 0.0
08 01:35 S 6 10.00 Fair CLR 57.2 46.4 67% 29.97 0.0
08 01:15 S 7 10.00 Fair CLR 55.4 44.6 67% 29.97 0.0
08 00:55 S 5 10.00 Fair CLR 55.4 42.8 63% 29.98 0.0
08 00:35 S 5 10.00 Fair CLR 55.4 42.8 63% 29.98 0.0
08 00:15 S 5 10.00 Fair CLR 55.4 41 59% 29.97 0.0
07 23:55 SE 5 10.00 Fair CLR 55.4 41 59% 29.97 0.0
07 23:35 SE 6 10.00 Fair CLR 57.2 42.8 59% 29.98 0.0
07 23:15 SE 7 10.00 Fair CLR 59 42.8 55% 29.98 0.0
07 22:55 SE 6 10.00 Fair CLR 59 39.2 48% 29.98 0.0
07 22:35 SE 3 10.00 Fair CLR 59 41 51% 29.97 0.0
07 21:55 SE 5 10.00 Fair CLR 60.8 41 48% 29.97 0.0
07 21:35 SE 3 10.00 Fair CLR 60.8 41 48% 29.97 0.0
07 21:15 S 7 10.00 Fair CLR 62.6 41 45% 29.96 0.0
07 20:55 S 6 10.00 Fair CLR 64.4 39.2 40% 29.95 0.0
07 20:35 S 7 10.00 Fair CLR 68 39.2 35% 29.95 0.0
07 20:15 S 8 10.00 Fair CLR 69.8 39.2 33% 29.95 0.0
07 19:55 S 6 10.00 Fair CLR 73.4 37.4 27% 29.95 0.0
07 19:35 S 5 10.00 Fair CLR 77 35.6 22% 77 29.95 0.0
07 19:15 S 3 10.00 Fair CLR 78.8 35.6 21% 78 29.95 0.0
07 18:55 S 3 10.00 Fair CLR 78.8 35.6 21% 78 29.94 0.0
07 18:35 SE 7 10.00 Fair CLR 80.6 37.4 21% 79 29.94 0.0
07 18:15 W 7 10.00 Fair CLR 80.6 35.6 20% 79 29.95 0.0
07 17:55 SW 5 10.00 Fair CLR 80.6 37.4 21% 79 29.95 0.0
07 17:35 SW 5 10.00 Fair CLR 78.8 35.6 21% 78 29.96 0.0
07 17:15 W 7 10.00 Fair CLR 78.8 37.4 23% 78 29.97 0.0
07 16:55 SW 10 10.00 Fair CLR 80.6 37.4 21% 79 29.97 0.0
07 16:35 N 6 10.00 Fair CLR 78.8 37.4 23% 78 29.97 0.0
07 16:15 SW 12 10.00 Fair CLR 80.6 39.2 23% 79 29.98 0.0
07 15:55 W 7 G 16 10.00 Fair CLR 78.8 39.2 24% 78 29.99 0.0
07 15:35 SW 10 7.00 Fair CLR 78.8 39.2 24% 78 30 0.0
07 15:15 SW 13 10.00 Fair CLR 77 37.4 24% 77 30.01 0.0
Date Time (cdt) Wind (mph) Vis. (mi.) Weather Sky Cond. Air Dwpt Max. Min. Relative Humidity Wind Chill (°F) Heat Index (°F) altimeter (in) sea level (mb) 1 hr 3 hr 6 hr
6 hour
Temperature (ºF) Pressure Precipitation (in)